sensor_id;sensor_type;location;lat;lon;timestamp;P1;durP1;ratioP1;P2;durP2;ratioP2
15655;SDS011;7928;43.614;1.456;2022-12-18T00:02:04;12.70;;;9.73;;
15655;SDS011;7928;43.614;1.456;2022-12-18T00:04:31;9.93;;;8.80;;
15655;SDS011;7928;43.614;1.456;2022-12-18T00:06:58;8.97;;;7.63;;
15655;SDS011;7928;43.614;1.456;2022-12-18T00:09:25;10.70;;;8.83;;
15655;SDS011;7928;43.614;1.456;2022-12-18T00:11:52;10.10;;;9.10;;
15655;SDS011;7928;43.614;1.456;2022-12-18T00:14:19;20.17;;;11.00;;
15655;SDS011;7928;43.614;1.456;2022-12-18T00:16:47;9.47;;;7.87;;
15655;SDS011;7928;43.614;1.456;2022-12-18T00:19:14;9.70;;;8.43;;
15655;SDS011;7928;43.614;1.456;2022-12-18T00:21:42;11.00;;;8.87;;
15655;SDS011;7928;43.614;1.456;2022-12-18T00:24:10;9.90;;;8.87;;
15655;SDS011;7928;43.614;1.456;2022-12-18T00:26:37;9.40;;;8.40;;
15655;SDS011;7928;43.614;1.456;2022-12-18T00:29:07;10.67;;;9.20;;
15655;SDS011;7928;43.614;1.456;2022-12-18T00:31:37;10.20;;;8.60;;
15655;SDS011;7928;43.614;1.456;2022-12-18T00:34:05;10.00;;;8.87;;
15655;SDS011;7928;43.614;1.456;2022-12-18T00:36:33;9.73;;;8.07;;
15655;SDS011;7928;43.614;1.456;2022-12-18T00:39:01;9.27;;;7.90;;
15655;SDS011;7928;43.614;1.456;2022-12-18T00:41:30;10.80;;;8.77;;
15655;SDS011;7928;43.614;1.456;2022-12-18T00:44:15;10.33;;;8.03;;
15655;SDS011;7928;43.614;1.456;2022-12-18T00:46:43;10.10;;;8.23;;
15655;SDS011;7928;43.614;1.456;2022-12-18T00:49:16;9.73;;;8.00;;
15655;SDS011;7928;43.614;1.456;2022-12-18T00:51:45;10.10;;;8.30;;
15655;SDS011;7928;43.614;1.456;2022-12-18T00:54:12;10.40;;;8.83;;
15655;SDS011;7928;43.614;1.456;2022-12-18T00:56:39;10.73;;;8.53;;
15655;SDS011;7928;43.614;1.456;2022-12-18T00:59:06;10.97;;;8.30;;
15655;SDS011;7928;43.614;1.456;2022-12-18T01:01:34;11.10;;;8.97;;
15655;SDS011;7928;43.614;1.456;2022-12-18T01:04:01;9.77;;;8.50;;
15655;SDS011;7928;43.614;1.456;2022-12-18T01:06:30;12.80;;;9.20;;
15655;SDS011;7928;43.614;1.456;2022-12-18T01:08:57;12.57;;;9.53;;
15655;SDS011;7928;43.614;1.456;2022-12-18T01:11:24;12.07;;;8.77;;
15655;SDS011;7928;43.614;1.456;2022-12-18T01:13:52;12.50;;;9.27;;
15655;SDS011;7928;43.614;1.456;2022-12-18T01:16:19;12.30;;;8.93;;
15655;SDS011;7928;43.614;1.456;2022-12-18T01:18:47;11.90;;;9.47;;
15655;SDS011;7928;43.614;1.456;2022-12-18T01:21:16;12.63;;;9.37;;
15655;SDS011;7928;43.614;1.456;2022-12-18T01:23:50;9.63;;;8.47;;
15655;SDS011;7928;43.614;1.456;2022-12-18T01:26:18;10.63;;;9.27;;
15655;SDS011;7928;43.614;1.456;2022-12-18T01:28:45;9.60;;;8.60;;
15655;SDS011;7928;43.614;1.456;2022-12-18T01:31:13;10.47;;;9.03;;
15655;SDS011;7928;43.614;1.456;2022-12-18T01:33:42;10.63;;;8.87;;
15655;SDS011;7928;43.614;1.456;2022-12-18T01:36:14;14.83;;;10.20;;
15655;SDS011;7928;43.614;1.456;2022-12-18T01:38:44;10.07;;;8.43;;
15655;SDS011;7928;43.614;1.456;2022-12-18T01:41:13;10.53;;;9.40;;
15655;SDS011;7928;43.614;1.456;2022-12-18T01:43:51;13.17;;;8.77;;
15655;SDS011;7928;43.614;1.456;2022-12-18T01:46:20;10.30;;;8.57;;
15655;SDS011;7928;43.614;1.456;2022-12-18T01:48:49;10.27;;;8.77;;
15655;SDS011;7928;43.614;1.456;2022-12-18T01:51:18;10.77;;;8.73;;
15655;SDS011;7928;43.614;1.456;2022-12-18T01:53:46;10.30;;;9.13;;
15655;SDS011;7928;43.614;1.456;2022-12-18T01:56:15;10.00;;;8.97;;
15655;SDS011;7928;43.614;1.456;2022-12-18T01:58:47;9.90;;;8.60;;
15655;SDS011;7928;43.614;1.456;2022-12-18T02:01:20;10.17;;;8.80;;
15655;SDS011;7928;43.614;1.456;2022-12-18T02:03:49;10.43;;;9.33;;
15655;SDS011;7928;43.614;1.456;2022-12-18T02:06:18;11.50;;;8.47;;
15655;SDS011;7928;43.614;1.456;2022-12-18T02:08:53;10.10;;;8.10;;
15655;SDS011;7928;43.614;1.456;2022-12-18T02:11:32;12.90;;;9.10;;
15655;SDS011;7928;43.614;1.456;2022-12-18T02:14:11;11.17;;;9.10;;
15655;SDS011;7928;43.614;1.456;2022-12-18T02:16:49;12.43;;;9.53;;
15655;SDS011;7928;43.614;1.456;2022-12-18T02:22:12;10.77;;;8.80;;
15655;SDS011;7928;43.614;1.456;2022-12-18T02:24:51;11.00;;;9.00;;
15655;SDS011;7928;43.614;1.456;2022-12-18T02:27:27;12.17;;;9.67;;
15655;SDS011;7928;43.614;1.456;2022-12-18T02:29:58;12.60;;;10.03;;
15655;SDS011;7928;43.614;1.456;2022-12-18T02:32:27;12.97;;;10.07;;
15655;SDS011;7928;43.614;1.456;2022-12-18T02:34:57;10.47;;;9.23;;
15655;SDS011;7928;43.614;1.456;2022-12-18T02:37:25;11.67;;;9.87;;
15655;SDS011;7928;43.614;1.456;2022-12-18T02:39:54;11.57;;;9.60;;
15655;SDS011;7928;43.614;1.456;2022-12-18T02:42:23;14.53;;;9.90;;
15655;SDS011;7928;43.614;1.456;2022-12-18T02:44:54;11.67;;;9.73;;
15655;SDS011;7928;43.614;1.456;2022-12-18T02:47:22;12.43;;;10.13;;
15655;SDS011;7928;43.614;1.456;2022-12-18T02:49:56;10.40;;;9.07;;
15655;SDS011;7928;43.614;1.456;2022-12-18T02:52:30;12.93;;;9.60;;
15655;SDS011;7928;43.614;1.456;2022-12-18T02:55:06;12.70;;;10.20;;
15655;SDS011;7928;43.614;1.456;2022-12-18T02:57:42;12.23;;;9.43;;
15655;SDS011;7928;43.614;1.456;2022-12-18T03:00:18;11.47;;;9.47;;
15655;SDS011;7928;43.614;1.456;2022-12-18T03:02:48;13.17;;;9.17;;
15655;SDS011;7928;43.614;1.456;2022-12-18T03:05:21;10.50;;;9.10;;
15655;SDS011;7928;43.614;1.456;2022-12-18T03:07:53;12.33;;;9.90;;
15655;SDS011;7928;43.614;1.456;2022-12-18T03:10:25;11.23;;;9.07;;
15655;SDS011;7928;43.614;1.456;2022-12-18T03:12:54;11.97;;;10.17;;
15655;SDS011;7928;43.614;1.456;2022-12-18T03:15:28;12.27;;;9.57;;
15655;SDS011;7928;43.614;1.456;2022-12-18T03:18:01;11.20;;;8.63;;
15655;SDS011;7928;43.614;1.456;2022-12-18T03:20:31;12.73;;;10.27;;
15655;SDS011;7928;43.614;1.456;2022-12-18T03:23:02;11.37;;;9.17;;
15655;SDS011;7928;43.614;1.456;2022-12-18T03:25:33;11.23;;;9.37;;
15655;SDS011;7928;43.614;1.456;2022-12-18T03:28:04;11.40;;;8.90;;
15655;SDS011;7928;43.614;1.456;2022-12-18T03:30:36;9.80;;;8.60;;
15655;SDS011;7928;43.614;1.456;2022-12-18T03:33:07;10.40;;;8.70;;
15655;SDS011;7928;43.614;1.456;2022-12-18T03:35:39;10.63;;;8.17;;
15655;SDS011;7928;43.614;1.456;2022-12-18T03:38:08;10.00;;;8.13;;
15655;SDS011;7928;43.614;1.456;2022-12-18T03:40:39;12.33;;;9.10;;
15655;SDS011;7928;43.614;1.456;2022-12-18T03:43:12;10.60;;;8.20;;
15655;SDS011;7928;43.614;1.456;2022-12-18T03:45:48;9.77;;;8.43;;
15655;SDS011;7928;43.614;1.456;2022-12-18T03:48:21;11.47;;;9.00;;
15655;SDS011;7928;43.614;1.456;2022-12-18T03:50:56;11.63;;;9.33;;
15655;SDS011;7928;43.614;1.456;2022-12-18T03:53:28;11.77;;;8.97;;
15655;SDS011;7928;43.614;1.456;2022-12-18T03:56:03;10.90;;;9.40;;
15655;SDS011;7928;43.614;1.456;2022-12-18T03:58:31;10.47;;;8.67;;
15655;SDS011;7928;43.614;1.456;2022-12-18T04:01:03;11.70;;;9.93;;
15655;SDS011;7928;43.614;1.456;2022-12-18T04:03:37;12.97;;;9.10;;
15655;SDS011;7928;43.614;1.456;2022-12-18T04:06:05;11.37;;;9.50;;
15655;SDS011;7928;43.614;1.456;2022-12-18T04:08:33;10.80;;;9.63;;
15655;SDS011;7928;43.614;1.456;2022-12-18T04:11:01;13.13;;;9.03;;
15655;SDS011;7928;43.614;1.456;2022-12-18T04:13:29;9.87;;;8.83;;
15655;SDS011;7928;43.614;1.456;2022-12-18T04:15:59;10.53;;;8.73;;
15655;SDS011;7928;43.614;1.456;2022-12-18T04:18:27;10.00;;;8.20;;
15655;SDS011;7928;43.614;1.456;2022-12-18T04:20:54;9.17;;;8.10;;
15655;SDS011;7928;43.614;1.456;2022-12-18T04:23:21;10.20;;;8.30;;
15655;SDS011;7928;43.614;1.456;2022-12-18T04:25:48;9.33;;;7.90;;
15655;SDS011;7928;43.614;1.456;2022-12-18T04:28:15;9.23;;;8.30;;
15655;SDS011;7928;43.614;1.456;2022-12-18T04:30:42;10.17;;;8.17;;
15655;SDS011;7928;43.614;1.456;2022-12-18T04:33:10;11.07;;;8.47;;
15655;SDS011;7928;43.614;1.456;2022-12-18T04:35:39;12.13;;;9.87;;
15655;SDS011;7928;43.614;1.456;2022-12-18T04:38:06;13.97;;;10.13;;
15655;SDS011;7928;43.614;1.456;2022-12-18T04:40:34;10.40;;;9.10;;
15655;SDS011;7928;43.614;1.456;2022-12-18T04:43:01;12.03;;;9.70;;
15655;SDS011;7928;43.614;1.456;2022-12-18T04:45:29;10.17;;;9.00;;
15655;SDS011;7928;43.614;1.456;2022-12-18T04:47:56;10.80;;;9.10;;
15655;SDS011;7928;43.614;1.456;2022-12-18T04:50:23;11.87;;;8.67;;
15655;SDS011;7928;43.614;1.456;2022-12-18T04:52:52;9.53;;;8.43;;
15655;SDS011;7928;43.614;1.456;2022-12-18T04:55:19;11.40;;;8.70;;
15655;SDS011;7928;43.614;1.456;2022-12-18T04:57:46;9.57;;;8.47;;
15655;SDS011;7928;43.614;1.456;2022-12-18T05:00:14;10.57;;;8.97;;
15655;SDS011;7928;43.614;1.456;2022-12-18T05:02:41;10.33;;;8.53;;
15655;SDS011;7928;43.614;1.456;2022-12-18T05:05:08;10.00;;;8.97;;
15655;SDS011;7928;43.614;1.456;2022-12-18T05:07:35;10.37;;;9.07;;
15655;SDS011;7928;43.614;1.456;2022-12-18T05:10:07;11.07;;;9.10;;
15655;SDS011;7928;43.614;1.456;2022-12-18T05:12:35;10.93;;;9.33;;
15655;SDS011;7928;43.614;1.456;2022-12-18T05:15:22;11.63;;;9.50;;
15655;SDS011;7928;43.614;1.456;2022-12-18T05:17:50;12.00;;;10.37;;
15655;SDS011;7928;43.614;1.456;2022-12-18T05:20:17;14.60;;;12.60;;
15655;SDS011;7928;43.614;1.456;2022-12-18T05:22:44;12.83;;;11.23;;
15655;SDS011;7928;43.614;1.456;2022-12-18T05:25:13;13.70;;;11.20;;
15655;SDS011;7928;43.614;1.456;2022-12-18T05:27:40;13.77;;;11.40;;
15655;SDS011;7928;43.614;1.456;2022-12-18T05:30:07;14.10;;;11.90;;
15655;SDS011;7928;43.614;1.456;2022-12-18T05:32:35;14.43;;;11.00;;
15655;SDS011;7928;43.614;1.456;2022-12-18T05:35:02;11.90;;;10.43;;
15655;SDS011;7928;43.614;1.456;2022-12-18T05:37:31;11.93;;;10.00;;
15655;SDS011;7928;43.614;1.456;2022-12-18T05:39:58;13.10;;;11.50;;
15655;SDS011;7928;43.614;1.456;2022-12-18T05:42:26;14.80;;;11.23;;
15655;SDS011;7928;43.614;1.456;2022-12-18T05:44:53;12.73;;;10.23;;
15655;SDS011;7928;43.614;1.456;2022-12-18T05:47:20;11.90;;;9.53;;
15655;SDS011;7928;43.614;1.456;2022-12-18T05:49:47;11.83;;;9.87;;
15655;SDS011;7928;43.614;1.456;2022-12-18T05:52:14;12.37;;;10.00;;
15655;SDS011;7928;43.614;1.456;2022-12-18T05:54:41;11.73;;;10.37;;
15655;SDS011;7928;43.614;1.456;2022-12-18T05:57:08;11.93;;;9.80;;
15655;SDS011;7928;43.614;1.456;2022-12-18T05:59:37;11.93;;;9.67;;
15655;SDS011;7928;43.614;1.456;2022-12-18T06:02:04;11.33;;;8.97;;
15655;SDS011;7928;43.614;1.456;2022-12-18T06:04:31;9.53;;;8.43;;
15655;SDS011;7928;43.614;1.456;2022-12-18T06:06:58;9.60;;;8.60;;
15655;SDS011;7928;43.614;1.456;2022-12-18T06:09:26;11.93;;;9.07;;
15655;SDS011;7928;43.614;1.456;2022-12-18T06:11:53;11.67;;;9.67;;
15655;SDS011;7928;43.614;1.456;2022-12-18T06:14:20;12.23;;;10.10;;
15655;SDS011;7928;43.614;1.456;2022-12-18T06:16:49;11.13;;;9.07;;
15655;SDS011;7928;43.614;1.456;2022-12-18T06:19:16;13.23;;;9.83;;
15655;SDS011;7928;43.614;1.456;2022-12-18T06:21:43;12.70;;;10.03;;
15655;SDS011;7928;43.614;1.456;2022-12-18T06:24:11;11.50;;;9.20;;
15655;SDS011;7928;43.614;1.456;2022-12-18T06:26:38;12.80;;;9.07;;
15655;SDS011;7928;43.614;1.456;2022-12-18T06:29:06;9.10;;;8.20;;
15655;SDS011;7928;43.614;1.456;2022-12-18T06:31:33;10.37;;;8.63;;
15655;SDS011;7928;43.614;1.456;2022-12-18T06:34:03;9.93;;;8.10;;
15655;SDS011;7928;43.614;1.456;2022-12-18T06:36:30;8.23;;;7.40;;
15655;SDS011;7928;43.614;1.456;2022-12-18T06:38:57;10.00;;;7.53;;
15655;SDS011;7928;43.614;1.456;2022-12-18T06:41:24;9.47;;;8.30;;
15655;SDS011;7928;43.614;1.456;2022-12-18T06:43:52;8.03;;;7.23;;
15655;SDS011;7928;43.614;1.456;2022-12-18T06:46:19;11.20;;;8.50;;
15655;SDS011;7928;43.614;1.456;2022-12-18T06:48:46;9.60;;;8.50;;
15655;SDS011;7928;43.614;1.456;2022-12-18T06:51:20;11.03;;;8.70;;
15655;SDS011;7928;43.614;1.456;2022-12-18T06:53:48;9.57;;;8.20;;
15655;SDS011;7928;43.614;1.456;2022-12-18T06:56:15;9.40;;;8.27;;
15655;SDS011;7928;43.614;1.456;2022-12-18T06:58:42;10.93;;;8.30;;
15655;SDS011;7928;43.614;1.456;2022-12-18T07:01:10;11.13;;;9.50;;
15655;SDS011;7928;43.614;1.456;2022-12-18T07:03:37;11.03;;;8.73;;
15655;SDS011;7928;43.614;1.456;2022-12-18T07:06:05;10.03;;;9.03;;
15655;SDS011;7928;43.614;1.456;2022-12-18T07:08:34;11.70;;;10.03;;
15655;SDS011;7928;43.614;1.456;2022-12-18T07:11:03;11.70;;;10.20;;
15655;SDS011;7928;43.614;1.456;2022-12-18T07:13:30;16.83;;;12.80;;
15655;SDS011;7928;43.614;1.456;2022-12-18T07:16:03;16.07;;;13.60;;
15655;SDS011;7928;43.614;1.456;2022-12-18T07:18:31;20.80;;;15.00;;
15655;SDS011;7928;43.614;1.456;2022-12-18T07:20:58;18.03;;;13.60;;
15655;SDS011;7928;43.614;1.456;2022-12-18T07:23:29;16.53;;;14.83;;
15655;SDS011;7928;43.614;1.456;2022-12-18T07:26:02;18.70;;;14.63;;
15655;SDS011;7928;43.614;1.456;2022-12-18T07:28:30;18.33;;;15.00;;
15655;SDS011;7928;43.614;1.456;2022-12-18T07:30:57;19.37;;;15.80;;
15655;SDS011;7928;43.614;1.456;2022-12-18T07:33:25;19.00;;;15.93;;
15655;SDS011;7928;43.614;1.456;2022-12-18T07:35:52;18.93;;;15.40;;
15655;SDS011;7928;43.614;1.456;2022-12-18T07:38:19;20.03;;;15.20;;
15655;SDS011;7928;43.614;1.456;2022-12-18T07:40:46;19.00;;;14.60;;
15655;SDS011;7928;43.614;1.456;2022-12-18T07:43:15;18.47;;;14.40;;
15655;SDS011;7928;43.614;1.456;2022-12-18T07:45:42;18.63;;;15.20;;
15655;SDS011;7928;43.614;1.456;2022-12-18T07:48:09;25.83;;;18.10;;
15655;SDS011;7928;43.614;1.456;2022-12-18T07:50:37;26.23;;;17.20;;
15655;SDS011;7928;43.614;1.456;2022-12-18T07:53:04;24.57;;;18.47;;
15655;SDS011;7928;43.614;1.456;2022-12-18T07:55:31;26.43;;;18.20;;
15655;SDS011;7928;43.614;1.456;2022-12-18T07:58:00;25.17;;;18.13;;
15655;SDS011;7928;43.614;1.456;2022-12-18T08:00:29;27.80;;;18.40;;
15655;SDS011;7928;43.614;1.456;2022-12-18T08:02:57;25.83;;;17.40;;
15655;SDS011;7928;43.614;1.456;2022-12-18T08:05:24;25.23;;;17.57;;
15655;SDS011;7928;43.614;1.456;2022-12-18T08:07:51;25.17;;;18.07;;
15655;SDS011;7928;43.614;1.456;2022-12-18T08:10:19;17.40;;;13.43;;
15655;SDS011;7928;43.614;1.456;2022-12-18T08:12:48;20.63;;;13.97;;
15655;SDS011;7928;43.614;1.456;2022-12-18T08:15:16;19.77;;;13.67;;
15655;SDS011;7928;43.614;1.456;2022-12-18T08:17:44;21.13;;;15.40;;
15655;SDS011;7928;43.614;1.456;2022-12-18T08:20:11;16.50;;;13.43;;
15655;SDS011;7928;43.614;1.456;2022-12-18T08:22:40;17.20;;;13.63;;
15655;SDS011;7928;43.614;1.456;2022-12-18T08:25:07;15.63;;;12.93;;
15655;SDS011;7928;43.614;1.456;2022-12-18T08:27:35;15.77;;;12.80;;
15655;SDS011;7928;43.614;1.456;2022-12-18T08:30:02;12.90;;;11.40;;
15655;SDS011;7928;43.614;1.456;2022-12-18T08:32:30;15.47;;;12.30;;
15655;SDS011;7928;43.614;1.456;2022-12-18T08:34:59;15.80;;;11.97;;
15655;SDS011;7928;43.614;1.456;2022-12-18T08:37:26;15.07;;;11.77;;
15655;SDS011;7928;43.614;1.456;2022-12-18T08:39:53;14.27;;;11.13;;
15655;SDS011;7928;43.614;1.456;2022-12-18T08:42:20;15.13;;;12.23;;
15655;SDS011;7928;43.614;1.456;2022-12-18T08:45:05;17.00;;;12.07;;
15655;SDS011;7928;43.614;1.456;2022-12-18T08:47:33;24.70;;;12.37;;
15655;SDS011;7928;43.614;1.456;2022-12-18T08:50:02;13.87;;;11.10;;
15655;SDS011;7928;43.614;1.456;2022-12-18T08:52:31;12.57;;;11.17;;
15655;SDS011;7928;43.614;1.456;2022-12-18T08:54:58;15.57;;;11.70;;
15655;SDS011;7928;43.614;1.456;2022-12-18T08:57:25;12.30;;;9.70;;
15655;SDS011;7928;43.614;1.456;2022-12-18T08:59:52;12.97;;;9.77;;
15655;SDS011;7928;43.614;1.456;2022-12-18T09:02:19;13.37;;;10.40;;
15655;SDS011;7928;43.614;1.456;2022-12-18T09:04:46;9.83;;;8.10;;
15655;SDS011;7928;43.614;1.456;2022-12-18T09:07:14;10.23;;;7.30;;
15655;SDS011;7928;43.614;1.456;2022-12-18T09:09:42;8.73;;;7.13;;
15655;SDS011;7928;43.614;1.456;2022-12-18T09:12:09;9.27;;;7.47;;
15655;SDS011;7928;43.614;1.456;2022-12-18T09:14:36;9.87;;;6.23;;
15655;SDS011;7928;43.614;1.456;2022-12-18T09:17:03;7.00;;;6.00;;
15655;SDS011;7928;43.614;1.456;2022-12-18T09:19:30;11.93;;;5.87;;
15655;SDS011;7928;43.614;1.456;2022-12-18T09:21:57;9.13;;;5.67;;
15655;SDS011;7928;43.614;1.456;2022-12-18T09:24:25;6.77;;;5.30;;
15655;SDS011;7928;43.614;1.456;2022-12-18T09:26:53;7.03;;;5.27;;
15655;SDS011;7928;43.614;1.456;2022-12-18T09:29:21;7.40;;;5.50;;
15655;SDS011;7928;43.614;1.456;2022-12-18T09:31:48;8.97;;;6.43;;
15655;SDS011;7928;43.614;1.456;2022-12-18T09:34:15;6.23;;;5.47;;
15655;SDS011;7928;43.614;1.456;2022-12-18T09:36:42;7.20;;;5.43;;
15655;SDS011;7928;43.614;1.456;2022-12-18T09:39:09;7.20;;;5.43;;
15655;SDS011;7928;43.614;1.456;2022-12-18T09:41:40;5.37;;;4.43;;
15655;SDS011;7928;43.614;1.456;2022-12-18T09:44:14;4.77;;;4.20;;
15655;SDS011;7928;43.614;1.456;2022-12-18T09:46:47;5.70;;;4.73;;
15655;SDS011;7928;43.614;1.456;2022-12-18T09:49:19;5.50;;;3.97;;
15655;SDS011;7928;43.614;1.456;2022-12-18T09:51:50;5.67;;;4.20;;
15655;SDS011;7928;43.614;1.456;2022-12-18T09:54:21;7.27;;;3.97;;
15655;SDS011;7928;43.614;1.456;2022-12-18T09:56:52;4.17;;;3.63;;
15655;SDS011;7928;43.614;1.456;2022-12-18T09:59:21;4.93;;;3.93;;
15655;SDS011;7928;43.614;1.456;2022-12-18T10:01:51;5.23;;;3.63;;
15655;SDS011;7928;43.614;1.456;2022-12-18T10:04:18;4.73;;;3.97;;
15655;SDS011;7928;43.614;1.456;2022-12-18T10:06:46;5.47;;;3.67;;
15655;SDS011;7928;43.614;1.456;2022-12-18T10:09:24;4.57;;;3.23;;
15655;SDS011;7928;43.614;1.456;2022-12-18T10:12:00;5.00;;;3.60;;
15655;SDS011;7928;43.614;1.456;2022-12-18T10:14:34;4.13;;;3.40;;
15655;SDS011;7928;43.614;1.456;2022-12-18T10:17:11;5.43;;;3.70;;
15655;SDS011;7928;43.614;1.456;2022-12-18T10:19:43;4.43;;;3.50;;
15655;SDS011;7928;43.614;1.456;2022-12-18T10:22:19;5.53;;;3.43;;
15655;SDS011;7928;43.614;1.456;2022-12-18T10:24:54;5.27;;;3.30;;
15655;SDS011;7928;43.614;1.456;2022-12-18T10:27:28;3.63;;;3.30;;
15655;SDS011;7928;43.614;1.456;2022-12-18T10:29:55;5.90;;;3.47;;
15655;SDS011;7928;43.614;1.456;2022-12-18T10:32:23;4.70;;;3.13;;
15655;SDS011;7928;43.614;1.456;2022-12-18T10:34:53;3.90;;;3.00;;
15655;SDS011;7928;43.614;1.456;2022-12-18T10:37:22;6.00;;;3.20;;
15655;SDS011;7928;43.614;1.456;2022-12-18T10:40:04;3.90;;;3.27;;
15655;SDS011;7928;43.614;1.456;2022-12-18T10:42:36;3.63;;;3.10;;
15655;SDS011;7928;43.614;1.456;2022-12-18T10:45:07;3.23;;;2.90;;
15655;SDS011;7928;43.614;1.456;2022-12-18T10:47:36;3.67;;;2.63;;
15655;SDS011;7928;43.614;1.456;2022-12-18T10:50:10;4.00;;;2.70;;
15655;SDS011;7928;43.614;1.456;2022-12-18T10:52:52;3.40;;;2.90;;
15655;SDS011;7928;43.614;1.456;2022-12-18T10:55:21;4.67;;;3.07;;
15655;SDS011;7928;43.614;1.456;2022-12-18T10:57:52;3.27;;;2.83;;
15655;SDS011;7928;43.614;1.456;2022-12-18T11:00:26;3.43;;;2.07;;
15655;SDS011;7928;43.614;1.456;2022-12-18T11:02:55;5.00;;;2.83;;
15655;SDS011;7928;43.614;1.456;2022-12-18T11:05:24;4.73;;;2.97;;
15655;SDS011;7928;43.614;1.456;2022-12-18T11:07:53;2.90;;;2.50;;
15655;SDS011;7928;43.614;1.456;2022-12-18T11:10:22;3.27;;;2.60;;
15655;SDS011;7928;43.614;1.456;2022-12-18T11:12:53;3.60;;;2.80;;
15655;SDS011;7928;43.614;1.456;2022-12-18T11:15:29;3.57;;;3.23;;
15655;SDS011;7928;43.614;1.456;2022-12-18T11:17:57;2.57;;;2.37;;
15655;SDS011;7928;43.614;1.456;2022-12-18T11:20:27;4.73;;;2.83;;
15655;SDS011;7928;43.614;1.456;2022-12-18T11:22:58;2.57;;;2.17;;
15655;SDS011;7928;43.614;1.456;2022-12-18T11:25:30;3.03;;;2.43;;
15655;SDS011;7928;43.614;1.456;2022-12-18T11:28:00;3.73;;;2.90;;
15655;SDS011;7928;43.614;1.456;2022-12-18T11:30:29;3.27;;;2.40;;
15655;SDS011;7928;43.614;1.456;2022-12-18T11:32:59;2.93;;;2.63;;
15655;SDS011;7928;43.614;1.456;2022-12-18T11:35:35;3.33;;;3.03;;
15655;SDS011;7928;43.614;1.456;2022-12-18T11:38:12;4.33;;;2.33;;
15655;SDS011;7928;43.614;1.456;2022-12-18T11:40:45;4.37;;;2.93;;
15655;SDS011;7928;43.614;1.456;2022-12-18T11:43:20;5.23;;;2.70;;
15655;SDS011;7928;43.614;1.456;2022-12-18T11:45:53;2.90;;;2.60;;
15655;SDS011;7928;43.614;1.456;2022-12-18T11:48:24;5.03;;;3.03;;
15655;SDS011;7928;43.614;1.456;2022-12-18T11:50:54;3.35;;;2.58;;
15655;SDS011;7928;43.614;1.456;2022-12-18T11:53:22;3.10;;;2.60;;
15655;SDS011;7928;43.614;1.456;2022-12-18T11:55:57;4.55;;;2.80;;
15655;SDS011;7928;43.614;1.456;2022-12-18T11:58:40;3.47;;;3.15;;
15655;SDS011;7928;43.614;1.456;2022-12-18T12:01:15;4.57;;;3.40;;
15655;SDS011;7928;43.614;1.456;2022-12-18T12:04:01;6.53;;;3.40;;
15655;SDS011;7928;43.614;1.456;2022-12-18T12:06:49;3.10;;;2.80;;
15655;SDS011;7928;43.614;1.456;2022-12-18T12:09:25;7.23;;;2.77;;
15655;SDS011;7928;43.614;1.456;2022-12-18T12:12:04;4.07;;;3.03;;
15655;SDS011;7928;43.614;1.456;2022-12-18T12:14:45;4.00;;;2.55;;
15655;SDS011;7928;43.614;1.456;2022-12-18T12:17:22;3.45;;;3.00;;
15655;SDS011;7928;43.614;1.456;2022-12-18T12:19:58;3.63;;;2.83;;
15655;SDS011;7928;43.614;1.456;2022-12-18T12:22:33;3.38;;;2.97;;
15655;SDS011;7928;43.614;1.456;2022-12-18T12:25:14;3.53;;;3.23;;
15655;SDS011;7928;43.614;1.456;2022-12-18T12:27:54;3.38;;;2.80;;
15655;SDS011;7928;43.614;1.456;2022-12-18T12:30:35;4.20;;;3.10;;
15655;SDS011;7928;43.614;1.456;2022-12-18T12:33:15;4.30;;;3.10;;
15655;SDS011;7928;43.614;1.456;2022-12-18T12:35:52;3.40;;;2.90;;
15655;SDS011;7928;43.614;1.456;2022-12-18T12:38:28;3.40;;;2.67;;
15655;SDS011;7928;43.614;1.456;2022-12-18T12:40:58;4.20;;;3.10;;
15655;SDS011;7928;43.614;1.456;2022-12-18T12:43:31;4.30;;;2.90;;
15655;SDS011;7928;43.614;1.456;2022-12-18T12:46:05;3.50;;;3.20;;
15655;SDS011;7928;43.614;1.456;2022-12-18T12:48:34;5.40;;;3.40;;
15655;SDS011;7928;43.614;1.456;2022-12-18T12:51:08;7.13;;;3.00;;
15655;SDS011;7928;43.614;1.456;2022-12-18T12:53:40;4.63;;;3.20;;
15655;SDS011;7928;43.614;1.456;2022-12-18T12:56:08;3.23;;;2.93;;
15655;SDS011;7928;43.614;1.456;2022-12-18T12:58:39;4.03;;;3.40;;
15655;SDS011;7928;43.614;1.456;2022-12-18T13:01:16;3.40;;;3.10;;
15655;SDS011;7928;43.614;1.456;2022-12-18T13:03:52;3.93;;;3.30;;
15655;SDS011;7928;43.614;1.456;2022-12-18T13:06:36;3.55;;;2.75;;
15655;SDS011;7928;43.614;1.456;2022-12-18T13:09:08;3.47;;;3.17;;
15655;SDS011;7928;43.614;1.456;2022-12-18T13:11:36;3.72;;;2.78;;
15655;SDS011;7928;43.614;1.456;2022-12-18T13:14:24;4.27;;;2.97;;
15655;SDS011;7928;43.614;1.456;2022-12-18T13:17:15;3.17;;;2.70;;
15655;SDS011;7928;43.614;1.456;2022-12-18T13:19:43;4.43;;;3.20;;
15655;SDS011;7928;43.614;1.456;2022-12-18T13:22:20;3.30;;;3.00;;
15655;SDS011;7928;43.614;1.456;2022-12-18T13:24:49;3.47;;;3.17;;
15655;SDS011;7928;43.614;1.456;2022-12-18T13:36:26;4.75;;;2.78;;
15655;SDS011;7928;43.614;1.456;2022-12-18T13:48:14;3.03;;;2.72;;
15655;SDS011;7928;43.614;1.456;2022-12-18T13:50:56;3.17;;;2.88;;
15655;SDS011;7928;43.614;1.456;2022-12-18T13:53:27;2.75;;;2.50;;
15655;SDS011;7928;43.614;1.456;2022-12-18T13:55:59;4.00;;;2.70;;
15655;SDS011;7928;43.614;1.456;2022-12-18T13:58:26;3.67;;;3.25;;
15655;SDS011;7928;43.614;1.456;2022-12-18T14:00:53;3.87;;;2.70;;
15655;SDS011;7928;43.614;1.456;2022-12-18T14:03:22;3.40;;;3.10;;
15655;SDS011;7928;43.614;1.456;2022-12-18T14:05:52;3.33;;;3.03;;
15655;SDS011;7928;43.614;1.456;2022-12-18T14:08:29;3.90;;;3.20;;
15655;SDS011;7928;43.614;1.456;2022-12-18T14:11:00;3.40;;;2.60;;
15655;SDS011;7928;43.614;1.456;2022-12-18T14:13:30;3.27;;;2.67;;
15655;SDS011;7928;43.614;1.456;2022-12-18T14:15:59;4.28;;;2.92;;
15655;SDS011;7928;43.614;1.456;2022-12-18T14:18:29;4.47;;;3.30;;
15655;SDS011;7928;43.614;1.456;2022-12-18T14:21:04;4.00;;;3.00;;
15655;SDS011;7928;43.614;1.456;2022-12-18T14:23:33;4.15;;;2.70;;
15655;SDS011;7928;43.614;1.456;2022-12-18T14:26:02;5.40;;;2.85;;
15655;SDS011;7928;43.614;1.456;2022-12-18T14:28:45;3.77;;;2.97;;
15655;SDS011;7928;43.614;1.456;2022-12-18T14:31:16;3.80;;;2.50;;
15655;SDS011;7928;43.614;1.456;2022-12-18T14:33:44;4.35;;;2.92;;
15655;SDS011;7928;43.614;1.456;2022-12-18T14:36:15;3.80;;;2.45;;
15655;SDS011;7928;43.614;1.456;2022-12-18T14:38:47;3.28;;;2.75;;
15655;SDS011;7928;43.614;1.456;2022-12-18T14:41:16;3.60;;;2.60;;
15655;SDS011;7928;43.614;1.456;2022-12-18T14:43:45;3.55;;;2.67;;
15655;SDS011;7928;43.614;1.456;2022-12-18T14:46:29;3.55;;;2.97;;
15655;SDS011;7928;43.614;1.456;2022-12-18T14:49:01;4.00;;;2.67;;
15655;SDS011;7928;43.614;1.456;2022-12-18T14:51:32;5.85;;;2.30;;
15655;SDS011;7928;43.614;1.456;2022-12-18T14:54:00;4.50;;;3.10;;
15655;SDS011;7928;43.614;1.456;2022-12-18T14:56:33;3.95;;;3.30;;
15655;SDS011;7928;43.614;1.456;2022-12-18T14:59:02;3.08;;;2.80;;
15655;SDS011;7928;43.614;1.456;2022-12-18T15:01:31;3.60;;;3.22;;
15655;SDS011;7928;43.614;1.456;2022-12-18T15:04:01;4.63;;;3.47;;
15655;SDS011;7928;43.614;1.456;2022-12-18T15:06:32;4.37;;;2.93;;
15655;SDS011;7928;43.614;1.456;2022-12-18T15:09:01;3.40;;;2.73;;
15655;SDS011;7928;43.614;1.456;2022-12-18T15:11:44;4.53;;;3.17;;
15655;SDS011;7928;43.614;1.456;2022-12-18T15:14:30;3.83;;;2.93;;
15655;SDS011;7928;43.614;1.456;2022-12-18T15:17:00;5.27;;;3.10;;
15655;SDS011;7928;43.614;1.456;2022-12-18T15:19:32;4.50;;;3.43;;
15655;SDS011;7928;43.614;1.456;2022-12-18T15:22:22;3.30;;;2.90;;
15655;SDS011;7928;43.614;1.456;2022-12-18T15:24:52;5.13;;;3.47;;
15655;SDS011;7928;43.614;1.456;2022-12-18T15:27:25;4.80;;;3.33;;
15655;SDS011;7928;43.614;1.456;2022-12-18T15:30:15;4.67;;;3.33;;
15655;SDS011;7928;43.614;1.456;2022-12-18T15:32:45;4.20;;;2.93;;